Enion, Illinois
Current Conditions -  °F | °C
As of 6:09 AM on Tuesday 27 Jan 2015 (Local Time) from KPIA Reporting Station
Haze Haze  
Wind Chill: 27°   Ceiling: 3800
Heat Index: 32°   Visibility: 5mi
Dew Point: 27°   Wind: 5mph
Humidity: 82%   Direction: NA
Pressure: 30.04"   Gusts: NA
Location:  40.2774°N, 90.0095°W
Report Text: KPIA 271209Z VRB04KT 5SM HZ FEW008 OVC038 00/M03 A3004 RMK AO2 T00001028
Loading
Personal Weather Stations






























Interactive Weather Map New forecast layout! Learn more

10-Day Weather Forecast

Advertisements
Track Severe Weather on mobile